sim
Sign-in with your pilot id or email,
or register
Callsign
Passwort

Schedule Details

Flight Number: OEO6014
Departure: Frankfurt Airport (EDDF) at 04:45
Arrival: Fuerteventura Airport (GCFV) at 09:40

Weather Information
Getting current METAR information for EDDF 182020Z 06011KT CAVOK 16/02 Q1024 NOSIG
Getting current METAR information for GCFV 182000Z 36016KT 9999 FEW045 18/11 Q1019

Schedule Frequency

Route Map